Time;durP1;ratioP1;P1;durP2;ratioP2;P2;SDS_P1;SDS_P2;PMS_P1;PMS_P2;Temp;Humidity;BMP_temperature;BMP_pressure;BME280_temperature;BME280_humidity;BME280_pressure;Samples;Min_cycle;Max_cycle;Signal;HPM_P1;HPM_P2
2022/09/13 00:01:43;;;;;;;5.13;4.67;;;;;;;14.11;100.00;99832.50;5104336;28;20195;-73
2022/09/13 00:04:09;;;;;;;4.50;4.17;;;;;;;14.09;100.00;99823.03;5087312;28;20209;-74
2022/09/13 00:06:34;;;;;;;5.13;4.73;;;;;;;14.09;100.00;99825.66;5110100;27;20259;-74
2022/09/13 00:09:00;;;;;;;5.00;4.50;;;;;;;14.08;100.00;99805.72;5109992;28;20312;-75
2022/09/13 00:11:27;;;;;;;5.40;4.83;;;;;;;14.09;100.00;99810.03;5118881;27;20210;-74
2022/09/13 00:13:55;;;;;;;5.17;4.20;;;;;;;14.10;100.00;99806.53;5108690;28;20192;-74
2022/09/13 00:16:23;;;;;;;4.80;4.40;;;;;;;14.09;100.00;99810.88;5107794;28;20214;-75
2022/09/13 00:18:49;;;;;;;5.30;4.83;;;;;;;14.08;100.00;99808.34;5100195;27;20197;-75
2022/09/13 00:21:17;;;;;;;4.90;4.37;;;;;;;14.06;100.00;99807.53;5109982;27;21081;-74
2022/09/13 00:23:45;;;;;;;5.30;4.80;;;;;;;14.01;100.00;99800.69;5113265;27;20196;-75
2022/09/13 00:26:13;;;;;;;4.43;4.13;;;;;;;13.96;100.00;99796.53;5108503;28;20210;-74
2022/09/13 00:28:39;;;;;;;4.30;4.00;;;;;;;13.90;100.00;99797.59;5109321;28;20578;-75
2022/09/13 00:31:06;;;;;;;4.13;3.83;;;;;;;13.87;100.00;99793.34;5109960;27;20183;-76
2022/09/13 00:33:32;;;;;;;4.70;4.30;;;;;;;13.84;100.00;99790.00;5105265;28;20187;-74
2022/09/13 00:35:57;;;;;;;4.80;4.50;;;;;;;13.82;100.00;99786.59;5113041;27;20198;-77
2022/09/13 00:38:23;;;;;;;4.10;3.70;;;;;;;13.83;100.00;99781.31;5123050;27;20223;-76
2022/09/13 00:40:48;;;;;;;4.30;4.00;;;;;;;13.84;100.00;99783.03;5109091;28;20200;-75
2022/09/13 00:43:19;;;;;;;4.90;4.50;;;;;;;13.83;100.00;99783.91;5109206;28;20244;-76
2022/09/13 00:45:46;;;;;;;4.40;4.00;;;;;;;13.81;100.00;99782.28;5103835;27;20214;-76
2022/09/13 00:48:20;;;;;;;4.80;4.30;;;;;;;13.80;100.00;99777.97;5111707;27;20212;-75
2022/09/13 00:50:54;;;;;;;4.40;4.00;;;;;;;13.80;100.00;99783.16;5100381;27;20240;-75
2022/09/13 00:53:25;;;;;;;4.70;4.30;;;;;;;13.80;100.00;99781.41;5125421;27;20646;-75
2022/09/13 00:56:08;;;;;;;4.57;4.27;;;;;;;13.82;100.00;99791.78;5114785;27;20180;-74
2022/09/13 00:58:40;;;;;;;4.90;4.40;;;;;;;13.80;100.00;99778.81;5117240;27;20211;-74
2022/09/13 01:01:09;;;;;;;4.83;4.50;;;;;;;13.78;100.00;99787.56;5101601;28;20249;-74
2022/09/13 01:03:35;;;;;;;4.50;4.20;;;;;;;13.76;100.00;99786.75;5113942;27;20246;-75
2022/09/13 01:06:12;;;;;;;4.50;4.10;;;;;;;13.74;100.00;99785.94;5095714;27;20183;-76
2022/09/13 01:08:42;;;;;;;4.17;3.77;;;;;;;13.71;100.00;99792.09;5128835;27;20749;-75
2022/09/13 01:11:17;;;;;;;4.40;3.93;;;;;;;13.69;100.00;99793.88;5107581;28;20265;-75
2022/09/13 01:13:43;;;;;;;4.20;3.90;;;;;;;13.67;100.00;99788.75;5114545;27;20222;-74
2022/09/13 01:16:08;;;;;;;4.53;4.13;;;;;;;13.66;100.00;99787.03;5108735;27;20211;-74
2022/09/13 01:18:34;;;;;;;3.97;3.67;;;;;;;13.65;100.00;99787.94;5116423;27;20628;-76
2022/09/13 01:21:18;;;;;;;4.03;3.73;;;;;;;13.63;100.00;99792.31;5108696;27;21135;-74
2022/09/13 01:23:58;;;;;;;3.70;3.50;;;;;;;13.58;100.00;99804.59;5099944;28;20378;-73
2022/09/13 01:26:51;;;;;;;4.70;4.30;;;;;;;13.56;100.00;99801.19;5109217;27;20662;-74
2022/09/13 01:29:25;;;;;;;4.33;4.03;;;;;;;13.52;100.00;99808.22;5104556;27;20201;-75
2022/09/13 01:32:10;;;;;;;4.20;3.90;;;;;;;13.51;100.00;99811.72;5105585;27;20180;-74
2022/09/13 01:35:06;;;;;;;4.70;4.40;;;;;;;13.47;100.00;99809.25;5106430;28;20189;-74
2022/09/13 01:37:40;;;;;;;5.80;4.67;;;;;;;13.43;100.00;99824.09;5103815;28;20190;-75
2022/09/13 01:40:16;;;;;;;4.07;3.77;;;;;;;13.39;100.00;99831.09;5105041;28;20183;-74
2022/09/13 01:43:14;;;;;;;4.50;4.20;;;;;;;13.32;100.00;99823.50;5113197;27;20195;-76
2022/09/13 01:46:19;;;;;;;5.37;4.83;;;;;;;13.28;100.00;99830.53;5105503;27;20181;-74
2022/09/13 01:48:55;;;;;;;5.50;4.50;;;;;;;13.26;100.00;99829.72;5068202;27;20217;-75
2022/09/13 01:51:41;;;;;;;4.33;4.03;;;;;;;13.24;100.00;99832.38;5107284;28;20217;-74
2022/09/13 01:54:19;;;;;;;5.27;4.77;;;;;;;13.25;100.00;99825.41;5087650;28;20185;-73
2022/09/13 01:57:11;;;;;;;4.97;4.20;;;;;;;13.26;100.00;99833.19;5110374;27;20612;-74
2022/09/13 01:59:49;;;;;;;3.93;3.53;;;;;;;13.26;100.00;99834.91;5100072;28;20747;-75
2022/09/13 02:02:38;;;;;;;4.83;4.07;;;;;;;13.28;100.00;99833.13;5088825;28;20191;-75
2022/09/13 02:05:22;;;;;;;4.90;4.50;;;;;;;13.30;100.00;99839.16;5095625;28;20666;-75
2022/09/13 02:08:00;;;;;;;3.93;3.67;;;;;;;13.33;100.00;99840.78;5105510;27;20343;-73
2022/09/13 02:10:32;;;;;;;4.90;4.53;;;;;;;13.32;100.00;99842.56;5114331;27;20592;-73
2022/09/13 02:12:58;;;;;;;4.60;4.23;;;;;;;13.32;100.00;99845.16;5108711;27;20192;-74
2022/09/13 02:15:48;;;;;;;3.67;3.47;;;;;;;13.30;100.00;99846.94;5097255;28;20236;-75
2022/09/13 02:18:17;;;;;;;4.23;3.93;;;;;;;13.25;100.00;99841.88;5075112;28;20204;-74
2022/09/13 02:20:45;;;;;;;4.40;4.10;;;;;;;13.21;100.00;99835.03;5106215;28;20195;-75
2022/09/13 02:23:21;;;;;;;5.20;4.47;;;;;;;13.19;100.00;99833.41;5088839;28;20200;-74
2022/09/13 02:25:49;;;;;;;5.00;4.50;;;;;;;13.15;100.00;99826.56;5104946;27;20270;-74
2022/09/13 02:28:19;;;;;;;4.73;4.33;;;;;;;13.15;100.00;99823.97;5106071;28;20212;-75
2022/09/13 02:30:50;;;;;;;4.37;4.07;;;;;;;13.15;100.00;99822.25;5097168;28;20217;-76
2022/09/13 02:33:24;;;;;;;4.60;4.30;;;;;;;13.15;100.00;99821.38;5103340;27;20570;-75
2022/09/13 02:35:58;;;;;;;4.53;4.23;;;;;;;13.14;100.00;99817.06;5101561;28;20705;-76
2022/09/13 02:38:30;;;;;;;5.30;4.80;;;;;;;13.11;100.00;99816.25;5114432;27;20243;-74
2022/09/13 02:41:08;;;;;;;4.77;4.47;;;;;;;13.08;100.00;99808.53;5089146;28;20181;-74
2022/09/13 02:43:44;;;;;;;5.07;4.67;;;;;;;13.05;100.00;99810.38;5088630;28;20311;-75
2022/09/13 02:46:14;;;;;;;4.63;4.23;;;;;;;13.01;100.00;99817.41;5083558;28;20552;-75
2022/09/13 02:48:52;;;;;;;4.80;4.40;;;;;;;12.98;100.00;99817.47;5094403;28;20254;-75
2022/09/13 02:51:56;;;;;;;6.43;4.50;;;;;;;12.93;100.00;99814.16;5106711;28;20206;-75
2022/09/13 02:54:56;;;;;;;5.00;4.50;;;;;;;12.88;100.00;99805.63;5100855;28;20572;-75
2022/09/13 02:57:41;;;;;;;5.03;4.53;;;;;;;12.86;100.00;99808.25;5102643;27;20524;-75
2022/09/13 03:00:07;;;;;;;4.60;4.20;;;;;;;12.83;100.00;99797.97;5114249;27;20180;-75
2022/09/13 03:02:34;;;;;;;4.30;4.00;;;;;;;12.85;100.00;99800.53;5108548;27;20226;-75
2022/09/13 03:05:00;;;;;;;4.33;4.03;;;;;;;12.83;100.00;99799.69;5105234;27;20176;-75
2022/09/13 03:07:26;;;;;;;4.77;4.37;;;;;;;12.85;100.00;99803.97;5106801;28;20464;-75
2022/09/13 03:09:55;;;;;;;4.50;4.20;;;;;;;12.88;100.00;99795.25;5094773;28;20268;-76
2022/09/13 03:12:32;;;;;;;4.33;4.03;;;;;;;12.90;100.00;99791.72;5089649;28;20266;-75
2022/09/13 03:15:17;;;;;;;4.07;3.73;;;;;;;12.92;100.00;99802.06;5107553;27;20734;-75
2022/09/13 03:18:09;;;;;;;4.23;3.93;;;;;;;12.93;100.00;99790.78;5104041;28;20296;-75
2022/09/13 03:21:08;;;;;;;4.10;3.80;;;;;;;12.95;100.00;99789.84;5103549;28;20185;-74
2022/09/13 03:24:09;;;;;;;4.27;3.97;;;;;;;12.95;100.00;99794.19;5104289;27;20231;-75
2022/09/13 03:26:51;;;;;;;3.97;3.67;;;;;;;12.96;100.00;99782.91;5002699;28;20821;-75
2022/09/13 03:29:26;;;;;;;3.43;3.13;;;;;;;12.97;100.00;99771.63;5089460;28;20212;-75
2022/09/13 03:32:25;;;;;;;3.83;3.53;;;;;;;12.98;100.00;99764.69;5112984;28;20192;-75
2022/09/13 03:35:03;;;;;;;4.30;3.53;;;;;;;12.99;100.00;99772.44;5100751;28;20191;-74
2022/09/13 03:37:35;;;;;;;3.50;3.30;;;;;;;13.00;100.00;99781.94;5086969;28;20195;-75
2022/09/13 03:40:11;;;;;;;4.10;3.80;;;;;;;13.01;100.00;99780.19;5106495;28;20183;-74
2022/09/13 03:42:45;;;;;;;4.37;3.63;;;;;;;13.01;100.00;99775.84;5097928;28;20200;-75
2022/09/13 03:45:13;;;;;;;4.33;3.63;;;;;;;13.03;100.00;99768.88;5101399;28;20277;-75
2022/09/13 03:47:42;;;;;;;4.07;3.77;;;;;;;13.06;100.00;99762.72;5122158;27;20237;-75
2022/09/13 03:50:09;;;;;;;4.10;3.60;;;;;;;13.09;100.00;99766.09;5120920;27;20177;-75
2022/09/13 03:52:35;;;;;;;3.63;3.40;;;;;;;13.12;100.00;99772.97;5081304;28;20388;-74
2022/09/13 03:55:04;;;;;;;3.63;3.43;;;;;;;13.16;100.00;99771.94;5116596;27;20325;-75
2022/09/13 03:57:29;;;;;;;3.67;3.40;;;;;;;13.21;100.00;99771.84;5107444;27;20800;-75
2022/09/13 03:59:56;;;;;;;4.13;3.03;;;;;;;13.24;100.00;99762.22;5116966;27;20196;-75
2022/09/13 04:02:23;;;;;;;3.10;2.90;;;;;;;13.27;100.00;99767.34;5087841;28;20187;-75
2022/09/13 04:04:49;;;;;;;3.63;3.33;;;;;;;13.27;100.00;99763.88;5110366;27;20195;-74
2022/09/13 04:07:20;;;;;;;3.70;3.33;;;;;;;13.28;100.00;99775.97;5108530;28;20189;-75
2022/09/13 04:09:45;;;;;;;3.83;3.53;;;;;;;13.28;100.00;99773.38;5115151;27;20715;-74
2022/09/13 04:12:13;;;;;;;3.30;3.10;;;;;;;13.29;100.00;99782.88;5125538;27;20173;-75
2022/09/13 04:14:38;;;;;;;4.10;3.40;;;;;;;13.30;100.00;99792.38;5105135;28;20185;-75
2022/09/13 04:17:04;;;;;;;3.57;3.37;;;;;;;13.30;100.00;99796.72;5114688;27;20207;-75
2022/09/13 04:19:30;;;;;;;3.97;3.67;;;;;;;13.28;100.00;99796.75;5104030;28;20366;-75
2022/09/13 04:21:56;;;;;;;3.87;3.57;;;;;;;13.29;100.00;99790.66;5103193;28;20188;-75
2022/09/13 04:24:25;;;;;;;3.77;3.37;;;;;;;13.29;100.00;99785.47;5112523;27;20262;-75
2022/09/13 04:26:52;;;;;;;3.70;3.40;;;;;;;13.29;100.00;99802.81;5114893;27;20201;-76
2022/09/13 04:29:17;;;;;;;3.70;3.40;;;;;;;13.31;100.00;99803.63;5105949;28;20288;-75
2022/09/13 04:31:46;;;;;;;4.10;3.80;;;;;;;13.32;100.00;99803.56;5096141;27;20317;-74
2022/09/13 04:34:12;;;;;;;3.50;3.30;;;;;;;13.33;100.00;99797.50;5106771;27;20177;-75
2022/09/13 04:36:38;;;;;;;3.20;3.00;;;;;;;13.35;100.00;99802.63;5123045;27;20199;-75
2022/09/13 04:39:03;;;;;;;3.63;3.33;;;;;;;13.35;100.00;99803.50;5114926;27;20208;-74
2022/09/13 04:41:31;;;;;;;4.37;3.43;;;;;;;13.36;100.00;99820.78;5109293;28;20175;-75
2022/09/13 04:43:57;;;;;;;3.97;3.57;;;;;;;13.38;100.00;99816.41;5102042;28;20284;-74
2022/09/13 04:46:22;;;;;;;3.40;3.20;;;;;;;13.39;100.00;99807.69;5108516;28;20310;-74
2022/09/13 04:48:51;;;;;;;4.20;3.70;;;;;;;13.41;100.00;99807.69;5112723;27;20228;-75
2022/09/13 04:51:17;;;;;;;3.60;3.30;;;;;;;13.43;100.00;99818.03;5101756;28;20179;-75
2022/09/13 04:53:50;;;;;;;4.03;3.67;;;;;;;13.44;100.00;99822.34;5109257;27;20216;-75
2022/09/13 04:56:16;;;;;;;3.30;3.10;;;;;;;13.44;100.00;99820.63;5114147;27;20176;-75
2022/09/13 04:58:42;;;;;;;4.17;3.80;;;;;;;13.46;100.00;99828.34;5114251;27;20206;-75
2022/09/13 05:01:09;;;;;;;4.63;3.90;;;;;;;13.47;100.00;99823.09;5075613;28;20402;-75
2022/09/13 05:03:35;;;;;;;3.43;3.13;;;;;;;13.49;100.00;99817.88;5109618;27;20894;-75
2022/09/13 05:06:06;;;;;;;3.70;3.40;;;;;;;13.52;100.00;99829.03;5086375;28;20246;-74
2022/09/13 05:08:31;;;;;;;3.77;3.50;;;;;;;13.54;100.00;99828.97;5086742;28;20204;-74
2022/09/13 05:10:58;;;;;;;3.67;3.37;;;;;;;13.56;100.00;99829.78;5089704;28;21797;-74
2022/09/13 05:13:24;;;;;;;3.47;3.20;;;;;;;13.58;100.00;99830.59;5103149;27;20178;-74
2022/09/13 05:15:53;;;;;;;3.50;3.30;;;;;;;13.59;100.00;99819.31;5109874;27;20216;-75
2022/09/13 05:18:18;;;;;;;3.83;3.53;;;;;;;13.62;100.00;99827.03;5113023;27;20230;-75
2022/09/13 05:20:43;;;;;;;3.73;3.43;;;;;;;13.66;100.00;99819.97;5106258;27;20300;-75
2022/09/13 05:23:09;;;;;;;3.70;3.40;;;;;;;13.67;100.00;99830.34;5111295;27;20201;-75
2022/09/13 05:25:34;;;;;;;3.53;3.23;;;;;;;13.69;100.00;99827.69;5113872;27;20203;-75
2022/09/13 05:28:00;;;;;;;4.03;3.50;;;;;;;13.70;100.00;99813.78;5120309;27;20229;-75
2022/09/13 05:30:25;;;;;;;4.30;4.00;;;;;;;13.74;100.00;99820.63;5111076;27;20192;-74
2022/09/13 05:32:50;;;;;;;3.57;3.27;;;;;;;13.79;100.00;99823.91;5107585;28;20252;-75
2022/09/13 05:35:16;;;;;;;4.50;4.10;;;;;;;13.85;100.00;99828.06;5101613;28;20207;-75
2022/09/13 05:37:41;;;;;;;4.70;3.97;;;;;;;13.90;100.00;99839.22;5108193;28;20807;-75
2022/09/13 05:40:06;;;;;;;4.43;4.07;;;;;;;13.93;100.00;99836.53;5107414;28;20186;-75
2022/09/13 05:42:32;;;;;;;3.80;3.43;;;;;;;13.95;100.00;99842.53;5104901;28;20214;-75
2022/09/13 05:44:58;;;;;;;4.07;3.77;;;;;;;13.98;100.00;99842.44;5112130;27;20290;-75
2022/09/13 05:47:23;;;;;;;4.00;3.70;;;;;;;14.01;100.00;99844.09;5115541;27;20521;-74
2022/09/13 05:49:48;;;;;;;3.80;3.50;;;;;;;14.06;100.00;99857.81;5120059;27;20924;-74
2022/09/13 05:52:14;;;;;;;3.63;3.33;;;;;;;14.07;100.00;99862.09;5107734;28;20714;-74
2022/09/13 05:54:39;;;;;;;3.80;3.47;;;;;;;14.06;100.00;99865.63;5121100;27;20595;-75
2022/09/13 05:57:04;;;;;;;3.93;3.60;;;;;;;14.07;100.00;99871.66;5088856;28;20196;-75
2022/09/13 05:59:30;;;;;;;3.50;3.20;;;;;;;14.11;100.00;99868.09;5104494;28;20288;-75
2022/09/13 06:01:56;;;;;;;3.80;3.50;;;;;;;14.18;100.00;99856.56;5115436;27;20525;-74
2022/09/13 06:04:21;;;;;;;3.77;3.40;;;;;;;14.31;100.00;99860.50;5109570;28;21014;-74
2022/09/13 06:06:47;;;;;;;3.43;3.13;;;;;;;14.52;100.00;99865.09;5111135;27;20553;-76
2022/09/13 06:09:12;;;;;;;3.40;3.10;;;;;;;14.75;100.00;99864.34;5091977;27;20210;-77
2022/09/13 06:11:38;;;;;;;3.50;3.20;;;;;;;14.92;100.00;99867.25;5094816;28;20184;-77
2022/09/13 06:14:03;;;;;;;3.37;3.07;;;;;;;15.11;100.00;99869.22;5104554;27;20185;-74
2022/09/13 06:16:29;;;;;;;3.73;3.43;;;;;;;15.32;100.00;99869.41;5103942;28;20189;-75
2022/09/13 06:18:54;;;;;;;3.47;3.17;;;;;;;15.51;100.00;99862.59;5106003;28;20200;-75
2022/09/13 06:21:21;;;;;;;4.27;3.10;;;;;;;15.70;100.00;99856.72;5106937;28;20178;-75
2022/09/13 06:23:52;;;;;;;3.00;2.70;;;;;;;15.89;100.00;99849.06;5100230;28;20199;-75
2022/09/13 06:26:19;;;;;;;2.87;2.60;;;;;;;16.10;100.00;99849.16;5105339;28;20204;-75
2022/09/13 06:28:49;;;;;;;3.60;2.97;;;;;;;16.28;100.00;99843.22;5107799;28;20260;-74
2022/09/13 06:31:16;;;;;;;3.57;3.27;;;;;;;16.46;100.00;99828.56;5119840;28;20434;-73
2022/09/13 06:33:42;;;;;;;5.07;2.90;;;;;;;16.70;100.00;99820.66;5104113;28;20199;-73
2022/09/13 06:36:13;;;;;;;4.33;3.30;;;;;;;16.99;100.00;99815.09;5126059;27;20252;-75
2022/09/13 06:38:39;;;;;;;4.33;3.37;;;;;;;17.27;100.00;99806.91;5125024;27;20275;-74
2022/09/13 06:41:19;;;;;;;4.47;3.27;;;;;;;17.51;100.00;99793.63;5102148;28;20184;-75
2022/09/13 06:43:45;;;;;;;4.10;3.10;;;;;;;17.68;100.00;99779.78;5092025;27;20550;-74
2022/09/13 06:46:14;;;;;;;4.87;3.10;;;;;;;17.90;100.00;99782.22;5120306;27;20531;-75
2022/09/13 06:48:41;;;;;;;3.67;2.93;;;;;;;18.13;100.00;99783.78;5114293;27;20216;-75
2022/09/13 06:51:18;;;;;;;3.17;2.80;;;;;;;18.39;100.00;99791.25;5088295;28;20193;-75
2022/09/13 06:53:45;;;;;;;2.93;2.50;;;;;;;18.75;100.00;99777.25;5107171;28;20640;-75
2022/09/13 06:56:15;;;;;;;3.37;2.63;;;;;;;19.08;100.00;99776.44;5106402;28;20237;-74
2022/09/13 06:58:42;;;;;;;3.00;2.27;;;;;;;19.36;100.00;99787.25;5114861;27;20224;-74
2022/09/13 07:01:10;;;;;;;2.80;2.47;;;;;;;19.63;100.00;99774.41;5119479;27;20179;-75
2022/09/13 07:03:37;;;;;;;3.63;2.40;;;;;;;19.95;100.00;99766.53;5108682;27;20708;-74
2022/09/13 07:06:20;;;;;;;2.50;2.30;;;;;;;20.07;100.00;99770.25;5099872;28;20182;-75
2022/09/13 07:08:47;;;;;;;3.20;2.30;;;;;;;20.18;100.00;99772.28;5106165;28;20233;-74
2022/09/13 07:11:15;;;;;;;3.07;2.43;;;;;;;20.21;100.00;99780.81;5106758;28;20266;-75
2022/09/13 07:13:40;;;;;;;2.03;1.80;;;;;;;20.13;99.47;99769.88;5088103;28;20214;-74
2022/09/13 07:16:09;;;;;;;4.27;1.90;;;;;;;20.08;99.71;99762.28;5106617;28;20604;-75
2022/09/13 07:18:35;;;;;;;2.20;2.00;;;;;;;20.02;100.00;99759.16;5107045;28;20210;-75
2022/09/13 07:21:06;;;;;;;5.37;2.13;;;;;;;19.88;100.00;99763.41;5104573;28;20187;-75
2022/09/13 07:23:34;;;;;;;2.20;2.00;;;;;;;19.78;100.00;99764.84;5106270;28;20223;-75
2022/09/13 07:26:01;;;;;;;2.50;2.30;;;;;;;19.65;99.99;99767.28;5114947;27;20567;-74
2022/09/13 07:28:36;;;;;;;2.43;2.23;;;;;;;19.61;100.00;99771.00;5108071;28;20297;-74
2022/09/13 07:31:22;;;;;;;3.83;2.80;;;;;;;19.61;99.83;99781.50;5108532;28;20210;-76
2022/09/13 07:33:54;;;;;;;2.73;2.53;;;;;;;19.57;99.51;99791.34;5126422;28;20190;-77
2022/09/13 07:36:20;;;;;;;3.80;2.67;;;;;;;19.54;99.94;99788.03;5126947;28;20174;-75
2022/09/13 07:38:45;;;;;;;7.40;2.77;;;;;;;19.46;99.83;99784.03;5107922;28;20585;-74
2022/09/13 07:41:13;;;;;;;2.67;2.33;;;;;;;19.49;100.00;99777.78;5105951;28;20234;-74
2022/09/13 07:43:38;;;;;;;5.37;3.07;;;;;;;19.53;100.00;99768.81;5088010;28;20717;-75
2022/09/13 07:46:07;;;;;;;2.70;2.50;;;;;;;19.53;100.00;99775.84;5087718;28;20180;-74
2022/09/13 07:48:34;;;;;;;2.67;2.47;;;;;;;19.52;100.00;99780.22;5107486;28;20294;-75
2022/09/13 07:51:06;;;;;;;2.97;2.60;;;;;;;19.58;100.00;99774.66;5095329;28;20237;-76
2022/09/13 07:53:33;;;;;;;3.03;2.40;;;;;;;19.74;100.00;99771.19;5106279;28;20183;-75
2022/09/13 07:56:11;;;;;;;3.80;2.33;;;;;;;19.97;100.00;99767.31;5106451;28;20192;-75
2022/09/13 07:58:38;;;;;;;2.60;2.30;;;;;;;20.17;100.00;99757.44;5112164;27;20211;-75
2022/09/13 08:01:06;;;;;;;4.23;2.60;;;;;;;20.34;100.00;99748.56;5097742;28;20284;-74
2022/09/13 08:03:33;;;;;;;2.90;2.60;;;;;;;20.48;100.00;99738.09;5097729;28;20205;-74
2022/09/13 08:05:59;;;;;;;2.80;2.30;;;;;;;20.54;99.61;99745.63;5111646;28;20538;-75
2022/09/13 08:08:24;;;;;;;3.90;2.27;;;;;;;20.56;99.29;99743.75;5106207;28;20204;-75
2022/09/13 08:10:50;;;;;;;6.33;2.77;;;;;;;20.59;98.66;99747.13;5120649;28;20796;-75
2022/09/13 08:13:15;;;;;;;4.37;2.80;;;;;;;20.62;98.46;99747.81;5105346;28;20264;-74
2022/09/13 08:15:41;;;;;;;3.50;2.30;;;;;;;20.62;97.87;99744.31;5107748;28;20188;-75
2022/09/13 08:18:07;;;;;;;4.20;2.57;;;;;;;20.60;97.72;99743.56;5095412;28;20294;-75
2022/09/13 08:20:37;;;;;;;4.63;2.50;;;;;;;20.66;96.37;99737.94;5106077;28;20184;-75
2022/09/13 08:23:04;;;;;;;3.80;2.70;;;;;;;20.61;95.71;99746.13;5087497;28;22330;-75
2022/09/13 08:25:33;;;;;;;3.90;2.40;;;;;;;20.65;95.51;99744.13;5106933;28;20207;-74
2022/09/13 08:27:58;;;;;;;2.77;2.53;;;;;;;20.64;95.09;99745.94;5110499;28;20687;-77
2022/09/13 08:30:23;;;;;;;2.60;2.40;;;;;;;20.67;95.69;99748.34;5090977;28;20211;-75
2022/09/13 08:32:50;;;;;;;5.57;2.77;;;;;;;20.74;95.26;99754.09;5109825;28;20268;-75
2022/09/13 08:35:15;;;;;;;3.13;2.73;;;;;;;20.88;94.99;99757.69;5091052;28;20185;-75
2022/09/13 08:37:41;;;;;;;4.77;2.67;;;;;;;20.99;94.95;99760.53;5109217;28;20180;-74
2022/09/13 08:40:07;;;;;;;5.67;2.47;;;;;;;21.12;94.64;99764.13;5099993;28;20756;-76
2022/09/13 08:42:35;;;;;;;2.40;2.20;;;;;;;21.35;93.68;99771.53;5108898;28;20176;-75
2022/09/13 08:45:00;;;;;;;2.43;2.23;;;;;;;21.35;93.81;99769.72;5109638;28;20196;-75
2022/09/13 08:47:26;;;;;;;6.80;2.73;;;;;;;21.41;93.45;99774.63;5090902;28;20200;-73
2022/09/13 08:50:03;;;;;;;2.67;2.47;;;;;;;21.59;93.04;99777.03;5113230;27;20208;-75
2022/09/13 08:52:29;;;;;;;4.57;2.57;;;;;;;21.84;92.48;99781.63;5088977;28;20271;-75
2022/09/13 08:54:56;;;;;;;3.10;2.17;;;;;;;22.01;91.11;99777.03;5121651;27;20263;-74
2022/09/13 08:57:31;;;;;;;3.13;2.70;;;;;;;21.99;90.85;99771.03;5125502;27;20187;-75
2022/09/13 09:00:16;;;;;;;3.00;2.70;;;;;;;22.08;91.37;99770.41;5113181;27;20681;-75
2022/09/13 09:03:10;;;;;;;4.60;2.90;;;;;;;22.08;90.55;99773.06;5108521;28;20204;-76
2022/09/13 09:05:46;;;;;;;3.10;2.47;;;;;;;21.91;91.11;99776.81;5108801;28;20278;-75
2022/09/13 09:08:30;;;;;;;3.57;2.50;;;;;;;22.00;90.60;99788.53;5108992;28;20254;-75
2022/09/13 09:11:01;;;;;;;2.80;2.60;;;;;;;21.97;91.16;99788.72;5109141;28;20479;-74
2022/09/13 09:13:56;;;;;;;2.43;2.17;;;;;;;21.97;91.31;99791.34;5116087;27;20619;-75
2022/09/13 09:16:30;;;;;;;3.37;2.60;;;;;;;22.15;91.63;99799.84;5112669;27;20642;-74
2022/09/13 09:19:01;;;;;;;3.77;2.60;;;;;;;22.26;91.76;99805.25;5108915;28;20238;-76
2022/09/13 09:21:27;;;;;;;2.63;2.43;;;;;;;22.36;92.10;99808.13;5089624;28;20187;-75
2022/09/13 09:23:54;;;;;;;3.27;2.63;;;;;;;22.52;91.89;99813.28;5090304;28;20581;-75
2022/09/13 09:26:25;;;;;;;2.73;2.53;;;;;;;22.63;92.02;99812.53;5108336;28;20294;-75
2022/09/13 09:28:54;;;;;;;4.17;2.63;;;;;;;22.75;91.20;99811.75;5121553;27;20251;-75
2022/09/13 09:31:44;;;;;;;2.97;2.67;;;;;;;22.71;91.50;99798.84;5101104;28;20191;-74
2022/09/13 09:34:41;;;;;;;3.10;2.50;;;;;;;22.69;92.02;99802.41;5090310;28;20176;-75
2022/09/13 09:37:36;;;;;;;6.10;2.53;;;;;;;22.63;91.67;99802.84;5057008;28;20195;-75
2022/09/13 09:40:08;;;;;;;3.17;2.53;;;;;;;22.65;91.19;99803.59;5101713;27;20202;-75
2022/09/13 09:42:48;;;;;;;2.80;2.60;;;;;;;22.63;91.03;99802.00;5085573;28;20218;-75
2022/09/13 09:45:47;;;;;;;3.10;2.60;;;;;;;22.81;90.33;99800.75;5092178;27;20207;-75
2022/09/13 09:48:17;;;;;;;2.57;2.37;;;;;;;23.17;89.23;99800.13;5070853;28;20212;-75
2022/09/13 09:50:57;;;;;;;2.53;2.27;;;;;;;23.64;88.11;99803.88;5089309;28;20200;-75
2022/09/13 09:53:28;;;;;;;2.83;2.30;;;;;;;24.17;87.25;99813.31;5092798;28;20222;-75
2022/09/13 09:55:57;;;;;;;2.23;2.13;;;;;;;24.52;86.33;99815.16;5096185;28;20189;-76
2022/09/13 09:58:39;;;;;;;2.17;2.00;;;;;;;24.77;86.04;99800.06;5114121;27;20204;-76
2022/09/13 10:01:13;;;;;;;2.33;1.97;;;;;;;24.92;85.48;99800.72;5127732;27;20271;-76
2022/09/13 10:03:39;;;;;;;2.37;1.97;;;;;;;25.02;85.13;99799.03;5110325;27;20216;-75
2022/09/13 10:06:19;;;;;;;3.50;2.17;;;;;;;25.08;84.98;99781.81;5106940;28;20229;-73
2022/09/13 10:08:55;;;;;;;2.00;1.90;;;;;;;25.14;84.83;99781.34;5107509;28;20290;-75
2022/09/13 10:11:21;;;;;;;2.17;1.97;;;;;;;25.10;84.89;99767.53;5106939;28;20192;-74
2022/09/13 10:14:01;;;;;;;2.80;1.80;;;;;;;25.18;84.57;99763.41;5098338;27;20837;-75
2022/09/13 10:16:29;;;;;;;3.00;1.70;;;;;;;25.32;83.99;99757.03;5113441;27;20195;-76
2022/09/13 10:19:21;;;;;;;2.13;1.93;;;;;;;25.41;83.26;99754.50;5115560;27;20200;-74
2022/09/13 10:22:04;;;;;;;1.70;1.60;;;;;;;25.34;82.57;99752.44;5104762;28;20937;-75
2022/09/13 10:24:31;;;;;;;3.47;1.93;;;;;;;25.30;82.58;99754.50;5106824;28;20208;-74
2022/09/13 10:26:58;;;;;;;2.37;1.77;;;;;;;25.25;81.03;99748.75;5097062;28;20299;-74
2022/09/13 10:29:27;;;;;;;2.10;1.60;;;;;;;25.11;80.57;99748.00;5095231;28;20219;-74
2022/09/13 10:31:56;;;;;;;2.20;2.00;;;;;;;25.09;79.28;99768.50;5106068;27;20176;-74
2022/09/13 10:34:30;;;;;;;3.80;1.83;;;;;;;24.99;78.03;99783.38;5095875;28;20177;-75
2022/09/13 10:36:59;;;;;;;4.00;2.00;;;;;;;24.79;78.92;99785.78;5114268;27;20192;-75
2022/09/13 10:39:27;;;;;;;2.20;2.00;;;;;;;24.71;79.66;99785.50;5118458;27;20210;-74
2022/09/13 10:42:08;;;;;;;5.23;2.30;;;;;;;24.63;80.10;99787.88;5111524;27;20219;-74
2022/09/13 10:44:43;;;;;;;3.97;2.67;;;;;;;24.66;80.98;99777.03;5089178;28;20265;-74
2022/09/13 10:47:43;;;;;;;3.97;2.07;;;;;;;24.67;80.95;99778.72;5114287;27;20188;-75
2022/09/13 10:50:18;;;;;;;3.13;1.90;;;;;;;24.76;80.88;99777.22;5102542;28;20279;-76
2022/09/13 10:52:55;;;;;;;3.73;2.40;;;;;;;24.93;81.47;99779.41;5124375;27;20287;-74
2022/09/13 10:55:30;;;;;;;4.40;2.33;;;;;;;24.93;81.05;99771.47;5118743;27;20195;-75
2022/09/13 10:58:01;;;;;;;4.93;2.70;;;;;;;24.93;81.12;99779.41;5118818;27;20701;-76
2022/09/13 11:01:02;;;;;;;3.87;1.97;;;;;;;24.98;80.64;99778.22;5116572;27;20184;-76
2022/09/13 11:03:58;;;;;;;3.07;1.97;;;;;;;25.08;80.40;99777.38;5102454;28;20218;-74
2022/09/13 11:06:58;;;;;;;2.63;1.90;;;;;;;25.26;80.27;99766.28;5101484;28;20183;-76
2022/09/13 11:09:46;;;;;;;2.60;2.03;;;;;;;25.35;79.67;99765.56;5086434;28;20236;-75
2022/09/13 11:12:27;;;;;;;1.93;1.83;;;;;;;25.33;79.84;99761.38;5099609;28;20237;-76
2022/09/13 11:15:07;;;;;;;4.50;1.90;;;;;;;25.29;79.64;99759.94;5087973;28;20184;-75
2022/09/13 11:18:05;;;;;;;2.20;1.77;;;;;;;25.28;79.81;99761.72;5077696;28;20556;-75
2022/09/13 11:20:47;;;;;;;1.63;1.50;;;;;;;25.31;79.08;99766.78;5106758;28;20635;-75
2022/09/13 11:23:47;;;;;;;1.83;1.53;;;;;;;25.18;79.34;99766.06;5105779;28;20280;-75
2022/09/13 11:26:37;;;;;;;2.93;1.70;;;;;;;25.05;79.65;99758.22;5097289;28;20211;-74
2022/09/13 11:29:24;;;;;;;1.60;1.50;;;;;;;25.00;80.15;99755.13;5087259;28;20349;-75
2022/09/13 11:32:04;;;;;;;2.80;1.70;;;;;;;25.11;79.47;99755.94;5127180;28;20657;-76
2022/09/13 11:35:02;;;;;;;2.23;1.63;;;;;;;25.08;79.74;99753.56;5127305;28;20164;-76
2022/09/13 11:37:42;;;;;;;1.63;1.50;;;;;;;25.15;79.99;99743.34;5127074;28;20171;-76
2022/09/13 11:40:27;;;;;;;2.37;1.83;;;;;;;25.25;80.28;99743.44;5104410;28;20542;-75
2022/09/13 11:42:59;;;;;;;2.27;1.83;;;;;;;25.44;80.35;99734.91;5107849;28;20203;-75
2022/09/13 11:45:31;;;;;;;1.80;1.70;;;;;;;25.51;80.26;99738.72;5101629;28;20196;-76
2022/09/13 11:48:15;;;;;;;4.20;2.10;;;;;;;25.61;79.96;99733.53;5105947;28;20245;-75
2022/09/13 11:50:52;;;;;;;3.97;2.10;;;;;;;25.75;79.04;99732.41;5107002;28;20192;-75
2022/09/13 11:53:51;;;;;;;5.63;2.50;;;;;;;25.99;78.66;99718.09;5123976;28;20529;-75
2022/09/13 11:56:28;;;;;;;3.77;2.20;;;;;;;26.23;77.92;99712.56;5086182;28;20260;-76